Aviation Digital Data Service (ADDS)

Output produced by METARs form (1931 UTC 25 March 2017)
found at http://www.aviationweather.gov/adds/metars/
 
RKSG 251858Z 00000KT 4SM BR OVC070 02/M01 A3010 RMK AO2A SLP197 T00201013 $
TAF RKSG 251200Z 2512/2618 33007KT 8000 HZ SCT060 BKN080 610806 QNH3008INS 
     BECMG 2517/2518 VRB06KT 9000 BR SCT060 BKN080 610806 QNH3005INS 
     BECMG 2521/2522 VRB06KT 4800 BR SCT060 BKN080 610806 QNH3005INS 
     TEMPO 2521/2524 3200 BR 
     BECMG 2600/2601 27007KT 8000 HZ BKN060 610608 QNH2999INS 
     BECMG 2614/2615 27007KT 8000 BR BKN060 610608 QNH3004INS TX11/2606Z TN00/2521Z
       
RKTU 251900Z 22002KT 8000 NSC 05/M02 Q1019 NOSIG
TAF RKTU 251700Z 2518/2624 06006KT 8000 BKN040 TX11/2606Z TN01/2621Z 
     BECMG 2604/2605 27008KT 4800 -RA BR BKN025 OVC060 
     BECMG 2609/2610 33008KT 8000 NSW SCT030 BKN060
       
RKTN 251900Z 13001KT 6000 BKN015 OVC025 05/04 Q1018 NOSIG
TAF AMD RKTN 251710Z 2518/2624 13006KT 6000 -RA BKN015 OVC030 TX11/2606Z TN03/2621Z 
     BECMG 2518/2519 8000 NSW 
     BECMG 2600/2601 30006KT 9999 SCT015 BKN030
       
RKPK 251900Z 31006KT 9999 FEW010 BKN060 06/03 Q1018 NOSIG
TAF RKPK 251700Z 2518/2624 30006KT 8000 SCT010 OVC040 TX13/2606Z TN04/2621Z 
     TEMPO 2603/2612 12006KT -RA SCT010 OVC030 
     BECMG 2614/2615 9000 SCT030
       
RKSS 251900Z 16002KT 8000 NSC 04/M01 Q1019 NOSIG
TAF RKSS 251700Z 2518/2624 16005KT 7000 FEW030 BKN060 TN00/2521Z TX11/2606Z TN01/2621Z 
     BECMG 2523/2524 29007KT 
     BECMG 2610/2611 22005KT 
     BECMG 2622/2623 29006KT
       
RKSI 251900Z 21002KT 4200 BR FEW030 BKN070 05/03 Q1019 NOSIG
TAF RKSI 251700Z 2518/2624 23006KT 4200 BR FEW010 SCT030 BKN150 TN03/2522Z TX10/2605Z TN03/2622Z 
     TEMPO 2520/2521 2800 
     BECMG 2522/2523 17006KT 7000 NSW 
     BECMG 2602/2603 25010KT 
     BECMG 2609/2610 32006KT 
     TEMPO 2617/2622 3500 BR
       
RKPC 251900Z 19004KT 9999 SCT030 07/03 Q1018 NOSIG
TAF RKPC 251700Z 2518/2624 18005KT 9999 SCT030 BKN150 TN06/2521Z TX10/2606Z TN07/2621Z 
     BECMG 2602/2603 33015G25KT 4200 -RA BKN030 OVC100 
     BECMG 2605/2606 6000 NSW SCT030 BKN150
       
RKJK 251858Z AUTO 33005KT 10SM FEW055 BKN085 06/M02 A3011 RMK AO2 SLP201
TAF RKJK 251500Z 2515/2621 33007KT 9999 SCT080 QNH3008INS 
     BECMG 2520/2521 VRB06KT 8000 BR SCT050 QNH3008INS 
     BECMG 2600/2601 30009KT 9999 NSW BKN050 610509 QNH3002INS TX11/2605Z TN02/2521Z
       
RKSO 251855Z VRB03KT 7SM SCT070 00/M04 A3012 RMK AO2A SLPNO WND DATA ESTMD ALSTG ESTMD $
TAF RKSO 251900Z 2519/2701 VRB06KT 9999 SCT060 QNH3005INS 
     BECMG 2520/2521 VRB06KT 8000 BR SCT060 QNH3004INS 
     BECMG 2600/2601 VRB06KT 9999 NSW BKN060 600609 QNH3000INS WND 28009KT AFT 2603 
     BECMG 2612/2613 VRB06KT 4800 BR BKN055 600559 QNH3004INS 
     BECMG 2621/2622 VRB06KT 3200 BR BKN065 600659 QNH3005INS TX12/2606Z TNM01/2521Z
       
RKSM 251900Z 20003KT 9999 BKN060 06/M02 A3010 RMK CIG060 SLP193 8/500 9/600
TAF RKSM 251700Z 2518/2624 24006KT 9999 BKN060 TN05/2521Z TX13/2606Z
       
RKNY 251920Z AUTO 24005KT 5000 BR ///047 06/03 Q1018
TAF RKNY 251700Z 2518/2624 23006KT 4200 BR FEW010 BKN030 OVC080 TN02/2522Z TX09/2604Z TN04/2622Z 
     BECMG 2601/2602 01006KT 6000 NSW 
     BECMG 2603/2604 09006KT 4200 -RA 
     BECMG 2608/2609 25006KT 
     BECMG 2614/2615 6000 NSW